Document
Identifier
ClassDocument
Number
Document NameDateFile Size (KB)Download
04515152 Well Logs 1620708 CEMENT BOND LOG 11/14/2011 5816048 Download
12323392 Well Logs 1544412 CEMENT BOND LOG 11/14/2011 4751932 Download
04515492 Well Logs 1907007 TRIPLE COMBO LOG 11/14/2011 4247830 Download
10311161 Well Logs 1299844 RADIAL ANALYSIS BOND LOG 11/14/2011 38010322 Download
10311161 Well Logs 1299843 2IN/HR TIME BASED REAL TIME LOG 11/14/2011 2835268 Download
10311161 Well Logs 1299842 CORRELATION PRINT GAMMA RAY LOG 11/14/2011 10492272 Download
04512442 Well Logs 1420001 CEMENT BOND LOG 11/14/2011 13830982 Download
07709201 Well Logs 1358073 SECTOR BOND LOG 11/14/2011 17193788 Download
12308327 Well Logs 82064 CEMENT BOND LOG 11/14/2011 1915944 Download
10311378 Well Logs 1300046 2IN/HR TIME BASED REAL TIME LOG 11/14/2011 4893642 Download
10311378 Well Logs 1300045 CORRELATION LOG GAMMA RAY 11/14/2011 16981050 Download
00706272 Well Logs 2517840 MUD LOG 11/14/2011 3778584 Download
12310406 Well Logs 1304433 TEMPERATURE LOG 11/14/2011 2137540 Download
12310406 Well Logs 1304434 TEMPERATURE LOG 11/14/2011 1406776 Download
12317565 Well Logs 1304435 TEMPERATURE LOG 11/14/2011 7035814 Download
07709189 Well Logs 1370006 CEMENT BOND LOG 11/14/2011 7406160 Download
07709034 Well Logs 1381961 CEMENT BOND LOG 11/14/2011 14818898 Download
12322609 Well Logs 1439631 CEMENT BOND LOG 11/14/2011 7119980 Download
04517069 Well Logs 1370704 SPECTRAL DENSITY DUAL SPACED NEUTRON HIGH RES. INDUCTION LOG 11/14/2011 5708676 Download
04517069 Well Logs 1619941 SPECTRAL DENSITY DUAL SPACED NEUTRON HIGH RES. INDUCTION LOG 11/14/2011 7213932 Download
04519065 Well Logs 1370703 CEMENT BOND LOG 11/14/2011 8646840 Download
04517069 Well Logs 1619942 CEMENT BOND LOG 11/14/2011 8763840 Download
12333237 Well Logs 1670104 CEMENT BOND LOG 11/14/2011 7163074 Download
12333236 Well Logs 1670103 CEMENT BOND LOG 11/14/2011 6137968 Download
12326022 Well Logs 1288489 SONIC BOND LOG 11/14/2011 12581594 Download
12345678910...